sensor_id;sensor_type;location;lat;lon;timestamp;P1;P2;P0
67892;PMS7003;54688;52.376;16.744;2024-03-08T00:00:48;107;86;
67892;PMS7003;54688;52.376;16.744;2024-03-08T00:04:18;108;89;
67892;PMS7003;54688;52.376;16.744;2024-03-08T00:07:21;98;87;
67892;PMS7003;54688;52.376;16.744;2024-03-08T00:10:23;111;82;
67892;PMS7003;54688;52.376;16.744;2024-03-08T00:13:25;85;75;
67892;PMS7003;54688;52.376;16.744;2024-03-08T00:16:27;97;76;
67892;PMS7003;54688;52.376;16.744;2024-03-08T00:19:30;98;83;
67892;PMS7003;54688;52.376;16.744;2024-03-08T00:22:32;85;71;
67892;PMS7003;54688;52.376;16.744;2024-03-08T00:25:35;98;77;
67892;PMS7003;54688;52.376;16.744;2024-03-08T00:28:37;96;83;
67892;PMS7003;54688;52.376;16.744;2024-03-08T00:31:39;94;79;
67892;PMS7003;54688;52.376;16.744;2024-03-08T00:34:41;86;73;
67892;PMS7003;54688;52.376;16.744;2024-03-08T00:37:44;84;74;
67892;PMS7003;54688;52.376;16.744;2024-03-08T00:40:46;101;80;
67892;PMS7003;54688;52.376;16.744;2024-03-08T00:43:47;95;73;
67892;PMS7003;54688;52.376;16.744;2024-03-08T00:46:50;88;68;
67892;PMS7003;54688;52.376;16.744;2024-03-08T00:49:52;92;76;
67892;PMS7003;54688;52.376;16.744;2024-03-08T00:52:54;85;71;
67892;PMS7003;54688;52.376;16.744;2024-03-08T00:55:56;88;73;
67892;PMS7003;54688;52.376;16.744;2024-03-08T00:58:58;88;76;
67892;PMS7003;54688;52.376;16.744;2024-03-08T01:02:02;89;68;
67892;PMS7003;54688;52.376;16.744;2024-03-08T01:05:05;87;68;
67892;PMS7003;54688;52.376;16.744;2024-03-08T01:08:08;84;71;
67892;PMS7003;54688;52.376;16.744;2024-03-08T01:11:12;85;69;
67892;PMS7003;54688;52.376;16.744;2024-03-08T01:14:15;81;63;
67892;PMS7003;54688;52.376;16.744;2024-03-08T01:20:15;85;65;
67892;PMS7003;54688;52.376;16.744;2024-03-08T01:23:17;79;65;
67892;PMS7003;54688;52.376;16.744;2024-03-08T01:26:19;81;58;
67892;PMS7003;54688;52.376;16.744;2024-03-08T01:29:21;74;58;
67892;PMS7003;54688;52.376;16.744;2024-03-08T01:32:23;83;58;
67892;PMS7003;54688;52.376;16.744;2024-03-08T01:35:25;75;56;
67892;PMS7003;54688;52.376;16.744;2024-03-08T01:38:27;81;63;
67892;PMS7003;54688;52.376;16.744;2024-03-08T01:41:30;79;56;
67892;PMS7003;54688;52.376;16.744;2024-03-08T01:44:32;74;56;
67892;PMS7003;54688;52.376;16.744;2024-03-08T01:47:35;78;55;
67892;PMS7003;54688;52.376;16.744;2024-03-08T01:50:38;80;62;
67892;PMS7003;54688;52.376;16.744;2024-03-08T01:53:42;79;56;
67892;PMS7003;54688;52.376;16.744;2024-03-08T01:56:48;79;57;
67892;PMS7003;54688;52.376;16.744;2024-03-08T01:59:51;80;63;
67892;PMS7003;54688;52.376;16.744;2024-03-08T02:02:53;80;59;
67892;PMS7003;54688;52.376;16.744;2024-03-08T02:05:55;80;57;
67892;PMS7003;54688;52.376;16.744;2024-03-08T02:08:58;77;59;
67892;PMS7003;54688;52.376;16.744;2024-03-08T02:12:01;82;62;
67892;PMS7003;54688;52.376;16.744;2024-03-08T02:15:04;80;62;
67892;PMS7003;54688;52.376;16.744;2024-03-08T02:18:06;78;58;
67892;PMS7003;54688;52.376;16.744;2024-03-08T02:21:07;74;56;
67892;PMS7003;54688;52.376;16.744;2024-03-08T02:24:10;78;60;
67892;PMS7003;54688;52.376;16.744;2024-03-08T02:27:12;71;55;
67892;PMS7003;54688;52.376;16.744;2024-03-08T02:30:14;77;57;
67892;PMS7003;54688;52.376;16.744;2024-03-08T02:36:16;74;59;
67892;PMS7003;54688;52.376;16.744;2024-03-08T02:39:18;78;60;
67892;PMS7003;54688;52.376;16.744;2024-03-08T02:42:20;76;57;
67892;PMS7003;54688;52.376;16.744;2024-03-08T02:45:22;77;58;
67892;PMS7003;54688;52.376;16.744;2024-03-08T02:48:25;74;55;
67892;PMS7003;54688;52.376;16.744;2024-03-08T02:51:28;74;58;
67892;PMS7003;54688;52.376;16.744;2024-03-08T02:54:31;74;57;
67892;PMS7003;54688;52.376;16.744;2024-03-08T02:57:33;73;54;
67892;PMS7003;54688;52.376;16.744;2024-03-08T03:00:36;69;55;
67892;PMS7003;54688;52.376;16.744;2024-03-08T03:06:37;73;56;
67892;PMS7003;54688;52.376;16.744;2024-03-08T03:09:39;73;53;
67892;PMS7003;54688;52.376;16.744;2024-03-08T03:18:39;71;52;
67892;PMS7003;54688;52.376;16.744;2024-03-08T03:21:42;72;52;
67892;PMS7003;54688;52.376;16.744;2024-03-08T03:24:44;70;53;
67892;PMS7003;54688;52.376;16.744;2024-03-08T03:27:47;70;53;
67892;PMS7003;54688;52.376;16.744;2024-03-08T03:30:49;64;50;
67892;PMS7003;54688;52.376;16.744;2024-03-08T03:33:52;76;53;
67892;PMS7003;54688;52.376;16.744;2024-03-08T03:36:54;75;52;
67892;PMS7003;54688;52.376;16.744;2024-03-08T03:39:56;66;52;
67892;PMS7003;54688;52.376;16.744;2024-03-08T03:42:58;70;52;
67892;PMS7003;54688;52.376;16.744;2024-03-08T03:46:00;69;50;
67892;PMS7003;54688;52.376;16.744;2024-03-08T03:49:02;71;54;
67892;PMS7003;54688;52.376;16.744;2024-03-08T03:52:05;68;52;
67892;PMS7003;54688;52.376;16.744;2024-03-08T03:55:08;66;50;
67892;PMS7003;54688;52.376;16.744;2024-03-08T03:58:10;66;50;
67892;PMS7003;54688;52.376;16.744;2024-03-08T04:01:12;67;52;
67892;PMS7003;54688;52.376;16.744;2024-03-08T04:04:14;68;53;
67892;PMS7003;54688;52.376;16.744;2024-03-08T04:07:17;67;51;
67892;PMS7003;54688;52.376;16.744;2024-03-08T04:10:19;67;51;
67892;PMS7003;54688;52.376;16.744;2024-03-08T04:13:21;74;53;
67892;PMS7003;54688;52.376;16.744;2024-03-08T04:16:23;68;52;
67892;PMS7003;54688;52.376;16.744;2024-03-08T04:19:26;65;50;
67892;PMS7003;54688;52.376;16.744;2024-03-08T04:22:27;69;52;
67892;PMS7003;54688;52.376;16.744;2024-03-08T04:25:30;69;52;
67892;PMS7003;54688;52.376;16.744;2024-03-08T04:28:32;69;49;
67892;PMS7003;54688;52.376;16.744;2024-03-08T04:31:34;62;51;
67892;PMS7003;54688;52.376;16.744;2024-03-08T04:34:36;67;50;
67892;PMS7003;54688;52.376;16.744;2024-03-08T04:37:38;69;51;
67892;PMS7003;54688;52.376;16.744;2024-03-08T04:40:40;71;53;
67892;PMS7003;54688;52.376;16.744;2024-03-08T04:43:42;66;53;
67892;PMS7003;54688;52.376;16.744;2024-03-08T04:46:44;66;52;
67892;PMS7003;54688;52.376;16.744;2024-03-08T04:49:46;71;52;
67892;PMS7003;54688;52.376;16.744;2024-03-08T04:52:48;66;51;
67892;PMS7003;54688;52.376;16.744;2024-03-08T04:55:51;70;50;
67892;PMS7003;54688;52.376;16.744;2024-03-08T04:58:53;69;53;
67892;PMS7003;54688;52.376;16.744;2024-03-08T05:01:55;74;53;
67892;PMS7003;54688;52.376;16.744;2024-03-08T05:04:57;71;54;
67892;PMS7003;54688;52.376;16.744;2024-03-08T05:07:59;72;52;
67892;PMS7003;54688;52.376;16.744;2024-03-08T05:11:02;69;50;
67892;PMS7003;54688;52.376;16.744;2024-03-08T05:14:04;71;53;
67892;PMS7003;54688;52.376;16.744;2024-03-08T05:17:06;68;48;
67892;PMS7003;54688;52.376;16.744;2024-03-08T05:20:09;66;50;
67892;PMS7003;54688;52.376;16.744;2024-03-08T05:23:11;65;48;
67892;PMS7003;54688;52.376;16.744;2024-03-08T05:26:13;69;51;
67892;PMS7003;54688;52.376;16.744;2024-03-08T05:29:15;67;53;
67892;PMS7003;54688;52.376;16.744;2024-03-08T05:32:17;77;54;
67892;PMS7003;54688;52.376;16.744;2024-03-08T05:35:19;72;53;
67892;PMS7003;54688;52.376;16.744;2024-03-08T05:38:23;71;52;
67892;PMS7003;54688;52.376;16.744;2024-03-08T05:41:25;71;53;
67892;PMS7003;54688;52.376;16.744;2024-03-08T05:47:27;70;54;
67892;PMS7003;54688;52.376;16.744;2024-03-08T05:50:29;74;54;
67892;PMS7003;54688;52.376;16.744;2024-03-08T05:53:31;71;53;
67892;PMS7003;54688;52.376;16.744;2024-03-08T05:56:33;68;50;
67892;PMS7003;54688;52.376;16.744;2024-03-08T05:59:35;73;55;
67892;PMS7003;54688;52.376;16.744;2024-03-08T06:02:37;74;56;
67892;PMS7003;54688;52.376;16.744;2024-03-08T06:05:39;76;55;
67892;PMS7003;54688;52.376;16.744;2024-03-08T06:08:41;78;59;
67892;PMS7003;54688;52.376;16.744;2024-03-08T06:11:43;78;58;
67892;PMS7003;54688;52.376;16.744;2024-03-08T06:14:45;75;57;
67892;PMS7003;54688;52.376;16.744;2024-03-08T06:17:48;73;56;
67892;PMS7003;54688;52.376;16.744;2024-03-08T06:20:50;78;57;
67892;PMS7003;54688;52.376;16.744;2024-03-08T06:23:53;71;54;
67892;PMS7003;54688;52.376;16.744;2024-03-08T06:26:55;77;60;
67892;PMS7003;54688;52.376;16.744;2024-03-08T06:29:57;74;53;
67892;PMS7003;54688;52.376;16.744;2024-03-08T06:33:00;71;56;
67892;PMS7003;54688;52.376;16.744;2024-03-08T06:36:02;73;57;
67892;PMS7003;54688;52.376;16.744;2024-03-08T06:39:04;81;60;
67892;PMS7003;54688;52.376;16.744;2024-03-08T06:42:07;82;59;
67892;PMS7003;54688;52.376;16.744;2024-03-08T06:45:09;83;62;
67892;PMS7003;54688;52.376;16.744;2024-03-08T06:48:12;79;59;
67892;PMS7003;54688;52.376;16.744;2024-03-08T06:51:14;80;63;
67892;PMS7003;54688;52.376;16.744;2024-03-08T06:54:17;77;61;
67892;PMS7003;54688;52.376;16.744;2024-03-08T06:57:18;72;56;
67892;PMS7003;54688;52.376;16.744;2024-03-08T07:00:21;79;57;
67892;PMS7003;54688;52.376;16.744;2024-03-08T07:03:24;75;59;
67892;PMS7003;54688;52.376;16.744;2024-03-08T07:06:26;80;59;
67892;PMS7003;54688;52.376;16.744;2024-03-08T07:09:28;81;58;
67892;PMS7003;54688;52.376;16.744;2024-03-08T07:12:30;81;62;
67892;PMS7003;54688;52.376;16.744;2024-03-08T07:15:32;85;73;
67892;PMS7003;54688;52.376;16.744;2024-03-08T07:18:35;85;75;
67892;PMS7003;54688;52.376;16.744;2024-03-08T07:21:38;86;72;
67892;PMS7003;54688;52.376;16.744;2024-03-08T07:24:41;87;72;
67892;PMS7003;54688;52.376;16.744;2024-03-08T07:27:43;89;74;
67892;PMS7003;54688;52.376;16.744;2024-03-08T07:30:45;82;64;
67892;PMS7003;54688;52.376;16.744;2024-03-08T07:33:47;82;68;
67892;PMS7003;54688;52.376;16.744;2024-03-08T07:36:50;81;66;
67892;PMS7003;54688;52.376;16.744;2024-03-08T07:39:52;83;61;
67892;PMS7003;54688;52.376;16.744;2024-03-08T07:42:54;79;64;
67892;PMS7003;54688;52.376;16.744;2024-03-08T07:45:56;81;66;
67892;PMS7003;54688;52.376;16.744;2024-03-08T07:49:00;79;64;
67892;PMS7003;54688;52.376;16.744;2024-03-08T07:52:03;79;61;
67892;PMS7003;54688;52.376;16.744;2024-03-08T07:55:05;80;64;
67892;PMS7003;54688;52.376;16.744;2024-03-08T07:58:07;78;61;
67892;PMS7003;54688;52.376;16.744;2024-03-08T08:01:16;80;59;
67892;PMS7003;54688;52.376;16.744;2024-03-08T08:04:18;81;63;
67892;PMS7003;54688;52.376;16.744;2024-03-08T08:07:20;77;61;
67892;PMS7003;54688;52.376;16.744;2024-03-08T08:10:22;75;60;
67892;PMS7003;54688;52.376;16.744;2024-03-08T08:13:24;79;59;
67892;PMS7003;54688;52.376;16.744;2024-03-08T08:16:26;74;56;
67892;PMS7003;54688;52.376;16.744;2024-03-08T08:19:29;81;61;
67892;PMS7003;54688;52.376;16.744;2024-03-08T08:22:31;72;58;
67892;PMS7003;54688;52.376;16.744;2024-03-08T08:25:33;77;57;
67892;PMS7003;54688;52.376;16.744;2024-03-08T08:28:36;79;60;
67892;PMS7003;54688;52.376;16.744;2024-03-08T08:31:38;75;56;
67892;PMS7003;54688;52.376;16.744;2024-03-08T08:34:40;76;55;
67892;PMS7003;54688;52.376;16.744;2024-03-08T08:37:42;78;57;
67892;PMS7003;54688;52.376;16.744;2024-03-08T08:40:45;69;52;
67892;PMS7003;54688;52.376;16.744;2024-03-08T08:43:47;72;56;
67892;PMS7003;54688;52.376;16.744;2024-03-08T08:46:49;73;55;
67892;PMS7003;54688;52.376;16.744;2024-03-08T08:49:50;69;53;
67892;PMS7003;54688;52.376;16.744;2024-03-08T08:52:52;71;55;
67892;PMS7003;54688;52.376;16.744;2024-03-08T08:55:54;63;50;
67892;PMS7003;54688;52.376;16.744;2024-03-08T08:58:56;71;54;
67892;PMS7003;54688;52.376;16.744;2024-03-08T09:01:58;63;50;
67892;PMS7003;54688;52.376;16.744;2024-03-08T09:05:01;58;47;
67892;PMS7003;54688;52.376;16.744;2024-03-08T09:11:03;58;45;
67892;PMS7003;54688;52.376;16.744;2024-03-08T09:14:05;64;49;
67892;PMS7003;54688;52.376;16.744;2024-03-08T09:17:07;52;42;
67892;PMS7003;54688;52.376;16.744;2024-03-08T09:20:10;51;39;
67892;PMS7003;54688;52.376;16.744;2024-03-08T09:23:12;51;41;
67892;PMS7003;54688;52.376;16.744;2024-03-08T09:26:15;49;42;
67892;PMS7003;54688;52.376;16.744;2024-03-08T09:29:18;50;36;
67892;PMS7003;54688;52.376;16.744;2024-03-08T09:32:20;46;38;
67892;PMS7003;54688;52.376;16.744;2024-03-08T09:38:22;47;36;
67892;PMS7003;54688;52.376;16.744;2024-03-08T09:41:25;40;35;
67892;PMS7003;54688;52.376;16.744;2024-03-08T09:44:27;40;34;
67892;PMS7003;54688;52.376;16.744;2024-03-08T09:47:31;39;33;
67892;PMS7003;54688;52.376;16.744;2024-03-08T09:50:35;38;33;
67892;PMS7003;54688;52.376;16.744;2024-03-08T09:53:37;44;36;
67892;PMS7003;54688;52.376;16.744;2024-03-08T09:56:39;35;32;
67892;PMS7003;54688;52.376;16.744;2024-03-08T09:59:43;35;30;
67892;PMS7003;54688;52.376;16.744;2024-03-08T10:02:45;37;30;
67892;PMS7003;54688;52.376;16.744;2024-03-08T10:05:47;33;30;
67892;PMS7003;54688;52.376;16.744;2024-03-08T10:11:49;32;30;
67892;PMS7003;54688;52.376;16.744;2024-03-08T10:14:54;36;30;
67892;PMS7003;54688;52.376;16.744;2024-03-08T10:17:56;33;30;
67892;PMS7003;54688;52.376;16.744;2024-03-08T10:21:03;36;32;
67892;PMS7003;54688;52.376;16.744;2024-03-08T10:24:10;40;33;
67892;PMS7003;54688;52.376;16.744;2024-03-08T10:27:12;28;27;
67892;PMS7003;54688;52.376;16.744;2024-03-08T10:30:15;31;29;
67892;PMS7003;54688;52.376;16.744;2024-03-08T10:33:18;28;25;
67892;PMS7003;54688;52.376;16.744;2024-03-08T10:36:20;31;30;
67892;PMS7003;54688;52.376;16.744;2024-03-08T10:39:23;30;26;
67892;PMS7003;54688;52.376;16.744;2024-03-08T10:42:28;32;29;
67892;PMS7003;54688;52.376;16.744;2024-03-08T10:45:34;26;25;
67892;PMS7003;54688;52.376;16.744;2024-03-08T10:48:43;35;26;
67892;PMS7003;54688;52.376;16.744;2024-03-08T10:51:46;29;26;
67892;PMS7003;54688;52.376;16.744;2024-03-08T10:54:48;27;25;
67892;PMS7003;54688;52.376;16.744;2024-03-08T10:57:51;40;30;
67892;PMS7003;54688;52.376;16.744;2024-03-08T11:00:54;29;28;
67892;PMS7003;54688;52.376;16.744;2024-03-08T11:03:57;29;27;
67892;PMS7003;54688;52.376;16.744;2024-03-08T11:07:00;33;29;
67892;PMS7003;54688;52.376;16.744;2024-03-08T11:10:03;34;23;
67892;PMS7003;54688;52.376;16.744;2024-03-08T11:13:32;23;22;
67892;PMS7003;54688;52.376;16.744;2024-03-08T11:16:40;25;22;
67892;PMS7003;54688;52.376;16.744;2024-03-08T11:19:46;40;31;
67892;PMS7003;54688;52.376;16.744;2024-03-08T11:22:49;31;26;
67892;PMS7003;54688;52.376;16.744;2024-03-08T11:25:52;35;29;
67892;PMS7003;54688;52.376;16.744;2024-03-08T11:28:54;28;28;
67892;PMS7003;54688;52.376;16.744;2024-03-08T11:32:04;24;22;
67892;PMS7003;54688;52.376;16.744;2024-03-08T11:35:06;27;23;
67892;PMS7003;54688;52.376;16.744;2024-03-08T11:38:09;25;22;
67892;PMS7003;54688;52.376;16.744;2024-03-08T11:41:11;33;25;
67892;PMS7003;54688;52.376;16.744;2024-03-08T11:44:13;30;26;
67892;PMS7003;54688;52.376;16.744;2024-03-08T11:47:16;24;24;
67892;PMS7003;54688;52.376;16.744;2024-03-08T11:50:19;34;29;
67892;PMS7003;54688;52.376;16.744;2024-03-08T11:53:21;30;26;
67892;PMS7003;54688;52.376;16.744;2024-03-08T11:56:24;28;27;
67892;PMS7003;54688;52.376;16.744;2024-03-08T11:59:27;31;24;
67892;PMS7003;54688;52.376;16.744;2024-03-08T12:02:29;30;27;
67892;PMS7003;54688;52.376;16.744;2024-03-08T12:05:31;29;25;
67892;PMS7003;54688;52.376;16.744;2024-03-08T12:08:33;33;31;
67892;PMS7003;54688;52.376;16.744;2024-03-08T12:11:36;29;25;
67892;PMS7003;54688;52.376;16.744;2024-03-08T12:14:38;30;26;
67892;PMS7003;54688;52.376;16.744;2024-03-08T12:17:40;30;25;
67892;PMS7003;54688;52.376;16.744;2024-03-08T12:20:43;31;26;
67892;PMS7003;54688;52.376;16.744;2024-03-08T12:23:45;29;23;
67892;PMS7003;54688;52.376;16.744;2024-03-08T12:26:47;32;26;
67892;PMS7003;54688;52.376;16.744;2024-03-08T12:29:49;35;30;
67892;PMS7003;54688;52.376;16.744;2024-03-08T12:32:53;30;25;
67892;PMS7003;54688;52.376;16.744;2024-03-08T12:35:56;24;24;
67892;PMS7003;54688;52.376;16.744;2024-03-08T12:38:58;30;27;
67892;PMS7003;54688;52.376;16.744;2024-03-08T12:42:01;34;29;
67892;PMS7003;54688;52.376;16.744;2024-03-08T12:45:03;26;23;
67892;PMS7003;54688;52.376;16.744;2024-03-08T12:48:12;30;22;
67892;PMS7003;54688;52.376;16.744;2024-03-08T12:51:15;29;23;
67892;PMS7003;54688;52.376;16.744;2024-03-08T12:54:18;28;26;
67892;PMS7003;54688;52.376;16.744;2024-03-08T12:57:20;27;27;
67892;PMS7003;54688;52.376;16.744;2024-03-08T13:00:23;28;24;
67892;PMS7003;54688;52.376;16.744;2024-03-08T13:03:25;33;27;
67892;PMS7003;54688;52.376;16.744;2024-03-08T13:06:28;31;28;
67892;PMS7003;54688;52.376;16.744;2024-03-08T13:09:30;29;27;
67892;PMS7003;54688;52.376;16.744;2024-03-08T13:12:33;20;20;
67892;PMS7003;54688;52.376;16.744;2024-03-08T13:15:34;27;24;
67892;PMS7003;54688;52.376;16.744;2024-03-08T13:18:37;30;24;
67892;PMS7003;54688;52.376;16.744;2024-03-08T13:21:39;22;21;
67892;PMS7003;54688;52.376;16.744;2024-03-08T13:24:41;29;25;
67892;PMS7003;54688;52.376;16.744;2024-03-08T13:27:44;28;25;
67892;PMS7003;54688;52.376;16.744;2024-03-08T13:30:46;25;21;
67892;PMS7003;54688;52.376;16.744;2024-03-08T13:33:49;33;27;
67892;PMS7003;54688;52.376;16.744;2024-03-08T13:36:51;30;25;
67892;PMS7003;54688;52.376;16.744;2024-03-08T13:39:54;20;20;
67892;PMS7003;54688;52.376;16.744;2024-03-08T13:42:57;21;20;
67892;PMS7003;54688;52.376;16.744;2024-03-08T13:45:59;27;23;
67892;PMS7003;54688;52.376;16.744;2024-03-08T13:49:04;27;24;
67892;PMS7003;54688;52.376;16.744;2024-03-08T13:52:06;26;25;
67892;PMS7003;54688;52.376;16.744;2024-03-08T13:55:09;32;24;
67892;PMS7003;54688;52.376;16.744;2024-03-08T13:58:11;25;23;
67892;PMS7003;54688;52.376;16.744;2024-03-08T14:01:13;23;21;
67892;PMS7003;54688;52.376;16.744;2024-03-08T14:04:16;23;23;
67892;PMS7003;54688;52.376;16.744;2024-03-08T14:07:18;22;21;
67892;PMS7003;54688;52.376;16.744;2024-03-08T14:10:20;27;25;
67892;PMS7003;54688;52.376;16.744;2024-03-08T14:13:23;31;28;
67892;PMS7003;54688;52.376;16.744;2024-03-08T14:16:25;26;22;
67892;PMS7003;54688;52.376;16.744;2024-03-08T14:19:28;23;21;
67892;PMS7003;54688;52.376;16.744;2024-03-08T14:22:29;23;22;
67892;PMS7003;54688;52.376;16.744;2024-03-08T14:25:31;24;21;
67892;PMS7003;54688;52.376;16.744;2024-03-08T14:28:34;22;21;
67892;PMS7003;54688;52.376;16.744;2024-03-08T14:31:36;22;21;
67892;PMS7003;54688;52.376;16.744;2024-03-08T14:34:38;24;20;
67892;PMS7003;54688;52.376;16.744;2024-03-08T14:37:41;27;25;
67892;PMS7003;54688;52.376;16.744;2024-03-08T14:40:43;22;19;
67892;PMS7003;54688;52.376;16.744;2024-03-08T14:43:45;25;20;
67892;PMS7003;54688;52.376;16.744;2024-03-08T14:46:48;23;22;
67892;PMS7003;54688;52.376;16.744;2024-03-08T14:49:50;31;29;
67892;PMS7003;54688;52.376;16.744;2024-03-08T14:52:52;19;18;
67892;PMS7003;54688;52.376;16.744;2024-03-08T14:55:54;31;22;
67892;PMS7003;54688;52.376;16.744;2024-03-08T14:58:56;23;19;
67892;PMS7003;54688;52.376;16.744;2024-03-08T15:01:59;23;21;
67892;PMS7003;54688;52.376;16.744;2024-03-08T15:05:02;24;21;
67892;PMS7003;54688;52.376;16.744;2024-03-08T15:08:05;19;19;
67892;PMS7003;54688;52.376;16.744;2024-03-08T15:11:07;24;20;
67892;PMS7003;54688;52.376;16.744;2024-03-08T15:14:09;22;20;
67892;PMS7003;54688;52.376;16.744;2024-03-08T15:17:11;24;19;
67892;PMS7003;54688;52.376;16.744;2024-03-08T15:20:14;23;20;
67892;PMS7003;54688;52.376;16.744;2024-03-08T15:23:16;17;17;
67892;PMS7003;54688;52.376;16.744;2024-03-08T15:26:18;24;21;
67892;PMS7003;54688;52.376;16.744;2024-03-08T15:29:20;22;19;
67892;PMS7003;54688;52.376;16.744;2024-03-08T15:32:22;19;18;
67892;PMS7003;54688;52.376;16.744;2024-03-08T15:35:25;26;21;
67892;PMS7003;54688;52.376;16.744;2024-03-08T15:38:27;24;18;
67892;PMS7003;54688;52.376;16.744;2024-03-08T15:41:29;22;21;
67892;PMS7003;54688;52.376;16.744;2024-03-08T15:44:31;25;20;
67892;PMS7003;54688;52.376;16.744;2024-03-08T15:47:33;24;22;
67892;PMS7003;54688;52.376;16.744;2024-03-08T15:50:35;24;20;
67892;PMS7003;54688;52.376;16.744;2024-03-08T15:53:38;22;20;
67892;PMS7003;54688;52.376;16.744;2024-03-08T15:56:40;23;20;
67892;PMS7003;54688;52.376;16.744;2024-03-08T15:59:42;25;22;
67892;PMS7003;54688;52.376;16.744;2024-03-08T16:02:44;22;19;
67892;PMS7003;54688;52.376;16.744;2024-03-08T16:05:48;22;19;
67892;PMS7003;54688;52.376;16.744;2024-03-08T16:08:50;38;25;
67892;PMS7003;54688;52.376;16.744;2024-03-08T16:11:52;22;20;
67892;PMS7003;54688;52.376;16.744;2024-03-08T16:14:54;26;23;
67892;PMS7003;54688;52.376;16.744;2024-03-08T16:17:57;33;27;
67892;PMS7003;54688;52.376;16.744;2024-03-08T16:20:59;30;26;
67892;PMS7003;54688;52.376;16.744;2024-03-08T16:24:01;30;23;
67892;PMS7003;54688;52.376;16.744;2024-03-08T16:27:04;28;25;
67892;PMS7003;54688;52.376;16.744;2024-03-08T16:30:08;32;24;
67892;PMS7003;54688;52.376;16.744;2024-03-08T16:33:11;26;22;
67892;PMS7003;54688;52.376;16.744;2024-03-08T16:36:13;26;24;
67892;PMS7003;54688;52.376;16.744;2024-03-08T16:39:16;29;28;
67892;PMS7003;54688;52.376;16.744;2024-03-08T16:42:18;26;25;
67892;PMS7003;54688;52.376;16.744;2024-03-08T16:45:22;35;32;
67892;PMS7003;54688;52.376;16.744;2024-03-08T16:48:25;36;30;
67892;PMS7003;54688;52.376;16.744;2024-03-08T16:51:27;42;32;
67892;PMS7003;54688;52.376;16.744;2024-03-08T16:54:29;39;31;
67892;PMS7003;54688;52.376;16.744;2024-03-08T16:57:32;37;32;
67892;PMS7003;54688;52.376;16.744;2024-03-08T17:00:34;34;31;
67892;PMS7003;54688;52.376;16.744;2024-03-08T17:03:36;40;33;
67892;PMS7003;54688;52.376;16.744;2024-03-08T17:06:38;39;33;
67892;PMS7003;54688;52.376;16.744;2024-03-08T17:09:40;39;34;
67892;PMS7003;54688;52.376;16.744;2024-03-08T17:12:42;45;35;
67892;PMS7003;54688;52.376;16.744;2024-03-08T17:15:45;49;37;
67892;PMS7003;54688;52.376;16.744;2024-03-08T17:18:47;41;31;
67892;PMS7003;54688;52.376;16.744;2024-03-08T17:21:49;41;32;
67892;PMS7003;54688;52.376;16.744;2024-03-08T17:24:51;43;36;
67892;PMS7003;54688;52.376;16.744;2024-03-08T17:27:55;47;35;
67892;PMS7003;54688;52.376;16.744;2024-03-08T17:30:57;52;40;
67892;PMS7003;54688;52.376;16.744;2024-03-08T17:33:59;46;36;
67892;PMS7003;54688;52.376;16.744;2024-03-08T17:37:01;50;38;
67892;PMS7003;54688;52.376;16.744;2024-03-08T17:40:04;47;39;
67892;PMS7003;54688;52.376;16.744;2024-03-08T17:43:08;52;42;
67892;PMS7003;54688;52.376;16.744;2024-03-08T17:46:10;54;42;
67892;PMS7003;54688;52.376;16.744;2024-03-08T17:49:12;52;41;
67892;PMS7003;54688;52.376;16.744;2024-03-08T17:52:15;57;44;
67892;PMS7003;54688;52.376;16.744;2024-03-08T17:55:18;139;115;
67892;PMS7003;54688;52.376;16.744;2024-03-08T17:58:21;113;102;
67892;PMS7003;54688;52.376;16.744;2024-03-08T18:01:23;101;89;
67892;PMS7003;54688;52.376;16.744;2024-03-08T18:04:26;93;80;
67892;PMS7003;54688;52.376;16.744;2024-03-08T18:07:28;93;85;
67892;PMS7003;54688;52.376;16.744;2024-03-08T18:10:32;123;101;
67892;PMS7003;54688;52.376;16.744;2024-03-08T18:13:35;96;82;
67892;PMS7003;54688;52.376;16.744;2024-03-08T18:16:37;75;67;
67892;PMS7003;54688;52.376;16.744;2024-03-08T18:19:39;73;59;
67892;PMS7003;54688;52.376;16.744;2024-03-08T18:22:41;69;53;
67892;PMS7003;54688;52.376;16.744;2024-03-08T18:25:43;73;59;
67892;PMS7003;54688;52.376;16.744;2024-03-08T18:28:45;71;59;
67892;PMS7003;54688;52.376;16.744;2024-03-08T18:31:48;94;85;
67892;PMS7003;54688;52.376;16.744;2024-03-08T18:34:51;87;79;
67892;PMS7003;54688;52.376;16.744;2024-03-08T18:37:53;101;89;
67892;PMS7003;54688;52.376;16.744;2024-03-08T18:40:55;76;65;
67892;PMS7003;54688;52.376;16.744;2024-03-08T18:43:57;72;58;
67892;PMS7003;54688;52.376;16.744;2024-03-08T18:47:00;69;53;
67892;PMS7003;54688;52.376;16.744;2024-03-08T18:50:02;69;54;
67892;PMS7003;54688;52.376;16.744;2024-03-08T18:53:05;70;55;
67892;PMS7003;54688;52.376;16.744;2024-03-08T18:56:07;76;58;
67892;PMS7003;54688;52.376;16.744;2024-03-08T18:59:09;70;53;
67892;PMS7003;54688;52.376;16.744;2024-03-08T19:02:11;72;55;
67892;PMS7003;54688;52.376;16.744;2024-03-08T19:05:14;65;49;
67892;PMS7003;54688;52.376;16.744;2024-03-08T19:08:17;67;53;
67892;PMS7003;54688;52.376;16.744;2024-03-08T19:11:20;77;64;
67892;PMS7003;54688;52.376;16.744;2024-03-08T19:14:22;75;67;
67892;PMS7003;54688;52.376;16.744;2024-03-08T19:17:24;73;59;
67892;PMS7003;54688;52.376;16.744;2024-03-08T19:20:29;79;67;
67892;PMS7003;54688;52.376;16.744;2024-03-08T19:23:34;78;67;
67892;PMS7003;54688;52.376;16.744;2024-03-08T19:26:36;76;67;
67892;PMS7003;54688;52.376;16.744;2024-03-08T19:29:39;79;68;
67892;PMS7003;54688;52.376;16.744;2024-03-08T19:32:41;81;69;
67892;PMS7003;54688;52.376;16.744;2024-03-08T19:35:43;99;90;
67892;PMS7003;54688;52.376;16.744;2024-03-08T19:38:45;86;75;
67892;PMS7003;54688;52.376;16.744;2024-03-08T19:41:47;74;62;
67892;PMS7003;54688;52.376;16.744;2024-03-08T19:44:49;74;56;
67892;PMS7003;54688;52.376;16.744;2024-03-08T19:47:52;74;60;
67892;PMS7003;54688;52.376;16.744;2024-03-08T19:50:54;74;60;
67892;PMS7003;54688;52.376;16.744;2024-03-08T19:53:57;75;56;
67892;PMS7003;54688;52.376;16.744;2024-03-08T19:56:58;78;63;
67892;PMS7003;54688;52.376;16.744;2024-03-08T20:00:01;76;60;
67892;PMS7003;54688;52.376;16.744;2024-03-08T20:03:05;75;63;
67892;PMS7003;54688;52.376;16.744;2024-03-08T20:06:07;69;51;
67892;PMS7003;54688;52.376;16.744;2024-03-08T20:09:09;71;53;
67892;PMS7003;54688;52.376;16.744;2024-03-08T20:12:11;75;60;
67892;PMS7003;54688;52.376;16.744;2024-03-08T20:15:17;72;55;
67892;PMS7003;54688;52.376;16.744;2024-03-08T20:18:20;85;73;